createdAt,value
2022-08-11T00:00:22.941Z,99431.17
2022-08-11T00:07:19.654Z,99429.23
2022-08-11T00:13:54.295Z,99430.38
2022-08-11T00:20:46.358Z,99427.96
2022-08-11T00:27:41.629Z,99425.38
2022-08-11T00:34:36.323Z,99420.91
2022-08-11T00:41:27.808Z,99421.58
2022-08-11T00:48:22.193Z,99414.45
2022-08-11T00:55:34.203Z,99409.09
2022-08-11T01:02:39.202Z,99409.52
2022-08-11T01:09:34.259Z,99414.02
2022-08-11T01:16:45.721Z,99413.31
2022-08-11T01:23:36.292Z,99417.66
2022-08-11T01:30:48.278Z,99411.92
2022-08-11T01:38:04.301Z,99410.43
2022-08-11T01:45:19.183Z,99404.59
2022-08-11T01:52:38.297Z,99403.09
2022-08-11T01:59:51.084Z,99396.31
2022-08-11T02:06:53.789Z,99398.41
2022-08-11T02:14:01.237Z,99397.84
2022-08-11T02:20:45.847Z,99393.90
2022-08-11T02:27:38.722Z,99398.52
2022-08-11T02:34:59.611Z,99393.17
2022-08-11T02:42:07.696Z,99391.45
2022-08-11T02:49:31.004Z,99392.84
2022-08-11T02:56:39.780Z,99393.23
2022-08-11T03:03:48.993Z,99393.98
2022-08-11T03:11:07.472Z,99393.80
2022-08-11T03:17:57.297Z,99388.86
2022-08-11T03:24:58.303Z,99387.50
2022-08-11T03:31:33.408Z,99391.84
2022-08-11T03:38:18.555Z,99392.50
2022-08-11T03:45:41.880Z,99395.45
2022-08-11T03:52:54.566Z,99398.35
2022-08-11T03:59:44.744Z,99391.09
2022-08-11T04:05:56.064Z,99390.55
2022-08-11T04:13:02.018Z,99396.33
2022-08-11T04:20:17.213Z,99400.55
2022-08-11T04:27:37.380Z,99398.98
2022-08-11T04:34:35.262Z,99395.77
2022-08-11T04:41:36.893Z,99392.80
2022-08-11T04:48:33.847Z,99393.00
2022-08-11T04:55:22.341Z,99395.09
2022-08-11T05:02:17.054Z,99399.54
2022-08-11T05:09:23.599Z,99405.05
2022-08-11T05:15:58.817Z,99407.63
2022-08-11T05:23:01.418Z,99404.60
2022-08-11T05:29:46.482Z,99404.52
2022-08-11T05:36:40.207Z,99409.13
2022-08-11T05:42:57.909Z,99417.59
2022-08-11T05:49:59.897Z,99409.58
2022-08-11T05:56:51.676Z,99406.66
2022-08-11T06:03:34.960Z,99408.73
2022-08-11T06:10:40.276Z,99411.27
2022-08-11T06:17:38.918Z,99419.06
2022-08-11T06:24:22.005Z,99420.98
2022-08-11T06:30:25.296Z,99422.49
2022-08-11T06:37:24.574Z,99423.73
2022-08-11T06:43:55.306Z,99422.95
2022-08-11T06:49:41.588Z,99421.94
2022-08-11T06:55:57.640Z,99426.84
2022-08-11T07:01:57.769Z,99427.53
2022-08-11T07:07:30.975Z,99433.44
2022-08-11T07:13:56.775Z,99432.30
2022-08-11T07:19:45.718Z,99428.49
2022-08-11T07:25:36.021Z,99424.88
2022-08-11T07:31:10.498Z,99424.17
2022-08-11T07:36:35.774Z,99421.10
2022-08-11T07:42:29.074Z,99427.13
2022-08-11T07:48:00.172Z,99428.20
2022-08-11T07:53:58.619Z,99429.27
2022-08-11T08:00:00.641Z,99425.13
2022-08-11T08:06:36.168Z,99426.78
2022-08-11T08:12:05.537Z,99428.50
2022-08-11T08:18:09.138Z,99431.05
2022-08-11T08:24:14.055Z,99428.52
2022-08-11T08:29:56.501Z,99423.80
2022-08-11T08:35:55.929Z,99420.98
2022-08-11T08:41:36.925Z,99413.17
2022-08-11T08:47:06.945Z,99404.80
2022-08-11T08:52:44.062Z,99401.13
2022-08-11T08:58:10.793Z,99399.64
2022-08-11T09:04:02.782Z,99398.14
2022-08-11T09:09:29.081Z,99397.56
2022-08-11T09:15:12.067Z,99402.70
2022-08-11T09:20:27.857Z,99406.66
2022-08-11T09:26:37.393Z,99407.13
2022-08-11T09:32:09.100Z,99401.87
2022-08-11T09:37:54.287Z,99399.95
2022-08-11T09:43:44.379Z,99392.55
2022-08-11T09:48:54.502Z,99385.75
2022-08-11T09:54:07.970Z,99387.71
2022-08-11T09:59:32.207Z,99376.80
2022-08-11T10:05:20.678Z,99371.05
2022-08-11T10:10:46.165Z,99366.29
2022-08-11T10:16:16.328Z,99361.21
2022-08-11T10:22:17.235Z,99359.77
2022-08-11T10:28:16.810Z,99353.81
2022-08-11T10:34:29.217Z,99350.15
2022-08-11T10:40:28.871Z,99350.95
2022-08-11T10:46:04.563Z,99342.63
2022-08-11T10:51:51.051Z,99332.02
2022-08-11T10:58:04.632Z,99330.91
2022-08-11T11:03:42.219Z,99326.20
2022-08-11T11:09:03.703Z,99323.95
2022-08-11T11:14:45.736Z,99318.02
2022-08-11T11:20:34.556Z,99309.95
2022-08-11T11:26:10.452Z,99302.42
2022-08-11T11:31:48.669Z,99289.77
2022-08-11T11:37:01.099Z,99286.63
2022-08-11T11:42:20.039Z,99280.23
2022-08-11T11:47:23.350Z,99276.42
2022-08-11T11:52:27.047Z,99271.36
2022-08-11T11:57:59.159Z,99269.55
2022-08-11T12:03:26.796Z,99269.48
2022-08-11T12:08:38.184Z,99262.04
2022-08-11T12:13:50.570Z,99256.23
2022-08-11T12:19:18.832Z,99256.88
2022-08-11T12:24:51.127Z,99256.98
2022-08-11T12:29:57.501Z,99247.58
2022-08-11T12:35:20.698Z,99241.21
2022-08-11T12:41:19.366Z,99240.16
2022-08-11T12:46:53.464Z,99229.40
2022-08-11T12:52:15.709Z,99225.66
2022-08-11T12:58:04.639Z,99217.66
2022-08-11T13:03:38.968Z,99207.88
2022-08-11T13:09:49.786Z,99192.21
2022-08-11T13:15:58.839Z,99186.61
2022-08-11T13:21:26.475Z,99186.53
2022-08-11T13:26:50.289Z,99190.33
2022-08-11T13:32:01.112Z,99182.75
2022-08-11T13:37:06.316Z,99177.98
2022-08-11T13:42:44.246Z,99175.27
2022-08-11T13:47:55.264Z,99173.11
2022-08-11T13:53:35.587Z,99170.78
2022-08-11T13:59:04.253Z,99166.61
2022-08-11T14:04:30.584Z,99154.69
2022-08-11T14:10:21.039Z,99148.84
2022-08-11T14:15:48.443Z,99140.98
2022-08-11T14:21:43.463Z,99137.16
2022-08-11T14:28:29.586Z,99140.23
2022-08-11T14:33:16.607Z,99152.35
2022-08-11T14:39:47.242Z,99195.52
2022-08-11T14:45:25.900Z,99225.52
2022-08-11T14:51:36.700Z,99249.92
2022-08-11T14:57:19.959Z,99279.27
2022-08-11T15:03:28.195Z,99295.50
2022-08-11T15:08:55.907Z,99316.23
2022-08-11T15:14:08.281Z,99320.54
2022-08-11T15:19:36.678Z,99319.81
2022-08-11T15:24:44.150Z,99326.58
2022-08-11T15:30:33.441Z,99320.85
2022-08-11T15:36:00.102Z,99305.02
2022-08-11T15:41:35.785Z,99293.91
2022-08-11T15:47:04.089Z,99272.76
2022-08-11T15:52:50.128Z,99253.83
2022-08-11T15:58:44.391Z,99242.20
2022-08-11T16:04:13.326Z,99236.30
2022-08-11T16:10:34.272Z,99240.17
2022-08-11T16:16:17.400Z,99243.71
2022-08-11T16:21:54.465Z,99243.17
2022-08-11T16:27:24.493Z,99232.42
2022-08-11T16:32:49.394Z,99235.22
2022-08-11T16:38:35.799Z,99226.88
2022-08-11T16:44:37.699Z,99221.75
2022-08-11T16:50:24.269Z,99231.27
2022-08-11T16:56:03.192Z,99235.77
2022-08-11T17:01:35.498Z,99232.39
2022-08-11T17:07:40.164Z,99232.48
2022-08-11T17:13:58.397Z,99221.35
2022-08-11T17:20:40.730Z,99213.63
2022-08-11T17:26:25.754Z,99210.95
2022-08-11T17:31:57.300Z,99210.80
2022-08-11T17:37:03.162Z,99203.55
2022-08-11T17:42:24.906Z,99205.42
2022-08-11T17:48:20.206Z,99207.13
2022-08-11T17:54:16.932Z,99205.42
2022-08-11T17:59:32.258Z,99204.22
2022-08-11T18:05:33.579Z,99206.15
2022-08-11T18:12:07.065Z,99210.05
2022-08-11T18:19:08.218Z,99216.73
2022-08-11T18:25:45.240Z,99208.84
2022-08-11T18:32:00.995Z,99203.34
2022-08-11T18:38:08.456Z,99194.78
2022-08-11T18:43:41.474Z,99203.55
2022-08-11T18:50:01.783Z,99211.07
2022-08-11T18:55:20.428Z,99216.67
2022-08-11T19:00:48.507Z,99220.05
2022-08-11T19:06:55.140Z,99222.20
2022-08-11T19:12:31.896Z,99221.02
2022-08-11T19:18:24.854Z,99233.45
2022-08-11T19:24:02.868Z,99232.50
2022-08-11T19:30:07.092Z,99228.90
2022-08-11T19:35:10.543Z,99231.61
2022-08-11T19:40:41.845Z,99226.23
2022-08-11T19:46:11.409Z,99227.03
2022-08-11T19:51:33.628Z,99224.05
2022-08-11T19:57:04.245Z,99216.30
2022-08-11T20:02:48.561Z,99219.63
2022-08-11T20:09:16.275Z,99212.20
2022-08-11T20:14:48.970Z,99211.67
2022-08-11T20:20:39.204Z,99212.63
2022-08-11T20:26:30.793Z,99216.52
2022-08-11T20:32:09.458Z,99215.58
2022-08-11T20:37:54.700Z,99212.99
2022-08-11T20:44:07.469Z,99213.38
2022-08-11T20:50:02.924Z,99214.44
2022-08-11T20:56:10.939Z,99213.66
2022-08-11T21:09:00.819Z,99202.01
2022-08-11T21:15:38.681Z,99207.95
2022-08-11T21:22:03.500Z,99212.42
2022-08-11T21:28:34.516Z,99215.02
2022-08-11T21:34:55.919Z,99221.17
2022-08-11T21:41:41.463Z,99221.70
2022-08-11T21:48:38.206Z,99230.00
2022-08-11T21:54:53.024Z,99235.38
2022-08-11T22:01:34.759Z,99232.43
2022-08-11T22:08:38.208Z,99225.80
2022-08-11T22:15:40.099Z,99221.17
2022-08-11T22:22:52.127Z,99231.05
2022-08-11T22:29:50.767Z,99226.66
2022-08-11T22:36:55.437Z,99228.05
2022-08-11T22:43:46.136Z,99225.70
2022-08-11T22:50:48.147Z,99223.29
2022-08-11T22:58:00.156Z,99233.64
2022-08-11T23:05:03.245Z,99236.26
2022-08-11T23:12:04.719Z,99227.71
2022-08-11T23:18:52.475Z,99230.15
2022-08-11T23:25:43.827Z,99229.24
2022-08-11T23:32:34.781Z,99226.59
2022-08-11T23:39:06.295Z,99215.39
2022-08-11T23:45:04.180Z,99219.69
2022-08-11T23:51:58.530Z,99206.73
2022-08-11T23:58:31.982Z,99203.83
